sensor_id;sensor_type;location;lat;lon;timestamp;P1;durP1;ratioP1;P2;durP2;ratioP2
62580;SDS011;48640;48.770;9.148;2023-03-21T00:02:22;4.18;;;2.25;;
62580;SDS011;48640;48.770;9.148;2023-03-21T00:04:49;3.83;;;2.17;;
62580;SDS011;48640;48.770;9.148;2023-03-21T00:07:16;2.67;;;1.85;;
62580;SDS011;48640;48.770;9.148;2023-03-21T00:09:44;3.42;;;1.92;;
62580;SDS011;48640;48.770;9.148;2023-03-21T00:12:10;6.43;;;2.42;;
62580;SDS011;48640;48.770;9.148;2023-03-21T00:14:38;3.45;;;2.03;;
62580;SDS011;48640;48.770;9.148;2023-03-21T00:17:05;3.35;;;1.73;;
62580;SDS011;48640;48.770;9.148;2023-03-21T00:19:31;3.92;;;2.33;;
62580;SDS011;48640;48.770;9.148;2023-03-21T00:22:02;4.25;;;2.53;;
62580;SDS011;48640;48.770;9.148;2023-03-21T00:24:29;4.07;;;2.03;;
62580;SDS011;48640;48.770;9.148;2023-03-21T00:26:57;4.03;;;1.90;;
62580;SDS011;48640;48.770;9.148;2023-03-21T00:29:25;3.50;;;1.88;;
62580;SDS011;48640;48.770;9.148;2023-03-21T00:31:51;4.15;;;1.90;;
62580;SDS011;48640;48.770;9.148;2023-03-21T00:34:18;3.20;;;1.85;;
62580;SDS011;48640;48.770;9.148;2023-03-21T00:36:45;4.50;;;1.77;;
62580;SDS011;48640;48.770;9.148;2023-03-21T00:39:12;3.55;;;2.03;;
62580;SDS011;48640;48.770;9.148;2023-03-21T00:41:39;3.97;;;1.95;;
62580;SDS011;48640;48.770;9.148;2023-03-21T00:44:07;3.55;;;1.60;;
62580;SDS011;48640;48.770;9.148;2023-03-21T00:46:35;3.50;;;1.92;;
62580;SDS011;48640;48.770;9.148;2023-03-21T00:49:02;4.55;;;1.90;;
62580;SDS011;48640;48.770;9.148;2023-03-21T00:51:29;5.30;;;2.13;;
62580;SDS011;48640;48.770;9.148;2023-03-21T00:53:57;4.82;;;2.13;;
62580;SDS011;48640;48.770;9.148;2023-03-21T00:56:24;4.43;;;1.80;;
62580;SDS011;48640;48.770;9.148;2023-03-21T00:58:51;3.97;;;2.25;;
62580;SDS011;48640;48.770;9.148;2023-03-21T01:01:19;5.05;;;2.42;;
62580;SDS011;48640;48.770;9.148;2023-03-21T01:03:46;4.20;;;2.17;;
62580;SDS011;48640;48.770;9.148;2023-03-21T01:06:15;3.47;;;1.80;;
62580;SDS011;48640;48.770;9.148;2023-03-21T01:08:44;3.53;;;1.98;;
62580;SDS011;48640;48.770;9.148;2023-03-21T01:11:13;4.13;;;2.53;;
62580;SDS011;48640;48.770;9.148;2023-03-21T01:13:41;3.25;;;1.95;;
62580;SDS011;48640;48.770;9.148;2023-03-21T01:16:08;3.80;;;2.00;;
62580;SDS011;48640;48.770;9.148;2023-03-21T01:18:38;4.25;;;2.30;;
62580;SDS011;48640;48.770;9.148;2023-03-21T01:21:06;3.90;;;2.25;;
62580;SDS011;48640;48.770;9.148;2023-03-21T01:23:35;3.63;;;2.08;;
62580;SDS011;48640;48.770;9.148;2023-03-21T01:26:02;3.13;;;1.95;;
62580;SDS011;48640;48.770;9.148;2023-03-21T01:28:29;4.30;;;1.92;;
62580;SDS011;48640;48.770;9.148;2023-03-21T01:30:56;3.50;;;2.08;;
62580;SDS011;48640;48.770;9.148;2023-03-21T01:33:26;4.82;;;2.17;;
62580;SDS011;48640;48.770;9.148;2023-03-21T01:35:54;3.92;;;2.35;;
62580;SDS011;48640;48.770;9.148;2023-03-21T01:38:21;4.78;;;2.35;;
62580;SDS011;48640;48.770;9.148;2023-03-21T01:40:48;3.63;;;2.05;;
62580;SDS011;48640;48.770;9.148;2023-03-21T01:43:23;5.25;;;2.20;;
62580;SDS011;48640;48.770;9.148;2023-03-21T01:46:07;5.30;;;2.40;;
62580;SDS011;48640;48.770;9.148;2023-03-21T01:48:45;5.80;;;2.75;;
62580;SDS011;48640;48.770;9.148;2023-03-21T01:53:44;3.85;;;2.15;;
62580;SDS011;48640;48.770;9.148;2023-03-21T01:56:13;4.88;;;3.33;;
62580;SDS011;48640;48.770;9.148;2023-03-21T01:58:43;3.83;;;2.70;;
62580;SDS011;48640;48.770;9.148;2023-03-21T02:01:11;5.38;;;2.20;;
62580;SDS011;48640;48.770;9.148;2023-03-21T02:03:40;3.95;;;2.10;;
62580;SDS011;48640;48.770;9.148;2023-03-21T02:06:17;4.40;;;2.35;;
62580;SDS011;48640;48.770;9.148;2023-03-21T02:08:54;4.13;;;2.40;;
62580;SDS011;48640;48.770;9.148;2023-03-21T02:11:23;3.95;;;2.28;;
62580;SDS011;48640;48.770;9.148;2023-03-21T02:13:51;3.78;;;2.33;;
62580;SDS011;48640;48.770;9.148;2023-03-21T02:16:20;5.28;;;2.35;;
62580;SDS011;48640;48.770;9.148;2023-03-21T02:18:54;5.72;;;2.38;;
62580;SDS011;48640;48.770;9.148;2023-03-21T02:21:41;4.57;;;2.38;;
62580;SDS011;48640;48.770;9.148;2023-03-21T02:27:20;3.92;;;2.55;;
62580;SDS011;48640;48.770;9.148;2023-03-21T02:30:09;5.25;;;2.85;;
62580;SDS011;48640;48.770;9.148;2023-03-21T02:36:14;4.00;;;2.50;;
62580;SDS011;48640;48.770;9.148;2023-03-21T02:38:53;4.70;;;2.63;;
62580;SDS011;48640;48.770;9.148;2023-03-21T02:41:24;3.83;;;2.38;;
62580;SDS011;48640;48.770;9.148;2023-03-21T02:43:58;5.40;;;3.40;;
62580;SDS011;48640;48.770;9.148;2023-03-21T02:46:33;3.97;;;2.38;;
62580;SDS011;48640;48.770;9.148;2023-03-21T02:49:06;10.15;;;2.92;;
62580;SDS011;48640;48.770;9.148;2023-03-21T02:51:38;5.63;;;3.28;;
62580;SDS011;48640;48.770;9.148;2023-03-21T02:54:09;7.63;;;3.78;;
62580;SDS011;48640;48.770;9.148;2023-03-21T02:56:39;4.93;;;3.15;;
62580;SDS011;48640;48.770;9.148;2023-03-21T02:59:07;4.88;;;3.13;;
62580;SDS011;48640;48.770;9.148;2023-03-21T03:01:34;5.72;;;3.30;;
62580;SDS011;48640;48.770;9.148;2023-03-21T03:04:01;7.63;;;3.55;;
62580;SDS011;48640;48.770;9.148;2023-03-21T03:06:29;7.05;;;3.47;;
62580;SDS011;48640;48.770;9.148;2023-03-21T03:09:16;6.63;;;3.50;;
62580;SDS011;48640;48.770;9.148;2023-03-21T03:11:52;5.00;;;3.55;;
62580;SDS011;48640;48.770;9.148;2023-03-21T03:14:32;6.72;;;3.55;;
62580;SDS011;48640;48.770;9.148;2023-03-21T03:17:09;7.28;;;3.53;;
62580;SDS011;48640;48.770;9.148;2023-03-21T03:19:44;7.07;;;3.45;;
62580;SDS011;48640;48.770;9.148;2023-03-21T03:22:24;5.28;;;3.65;;
62580;SDS011;48640;48.770;9.148;2023-03-21T03:25:02;6.22;;;3.83;;
62580;SDS011;48640;48.770;9.148;2023-03-21T03:27:34;5.95;;;4.53;;
62580;SDS011;48640;48.770;9.148;2023-03-21T03:30:06;5.72;;;3.67;;
62580;SDS011;48640;48.770;9.148;2023-03-21T03:32:36;4.85;;;3.13;;
62580;SDS011;48640;48.770;9.148;2023-03-21T03:35:09;7.15;;;3.92;;
62580;SDS011;48640;48.770;9.148;2023-03-21T03:37:39;5.60;;;3.20;;
62580;SDS011;48640;48.770;9.148;2023-03-21T03:40:09;6.50;;;4.15;;
62580;SDS011;48640;48.770;9.148;2023-03-21T03:42:41;6.07;;;3.40;;
62580;SDS011;48640;48.770;9.148;2023-03-21T03:45:12;5.53;;;3.80;;
62580;SDS011;48640;48.770;9.148;2023-03-21T03:47:40;5.63;;;3.50;;
62580;SDS011;48640;48.770;9.148;2023-03-21T03:50:11;7.10;;;3.35;;
62580;SDS011;48640;48.770;9.148;2023-03-21T03:52:43;4.72;;;2.67;;
62580;SDS011;48640;48.770;9.148;2023-03-21T03:55:16;4.53;;;2.83;;
62580;SDS011;48640;48.770;9.148;2023-03-21T03:57:45;5.10;;;2.80;;
62580;SDS011;48640;48.770;9.148;2023-03-21T04:00:12;7.00;;;3.03;;
62580;SDS011;48640;48.770;9.148;2023-03-21T04:02:41;8.02;;;3.08;;
62580;SDS011;48640;48.770;9.148;2023-03-21T04:05:08;4.13;;;2.70;;
62580;SDS011;48640;48.770;9.148;2023-03-21T04:07:35;4.55;;;2.92;;
62580;SDS011;48640;48.770;9.148;2023-03-21T04:10:02;4.75;;;2.38;;
62580;SDS011;48640;48.770;9.148;2023-03-21T04:12:31;5.45;;;2.60;;
62580;SDS011;48640;48.770;9.148;2023-03-21T04:14:58;5.10;;;2.58;;
62580;SDS011;48640;48.770;9.148;2023-03-21T04:17:24;4.90;;;2.67;;
62580;SDS011;48640;48.770;9.148;2023-03-21T04:19:51;4.10;;;2.22;;
62580;SDS011;48640;48.770;9.148;2023-03-21T04:22:18;5.47;;;3.33;;
62580;SDS011;48640;48.770;9.148;2023-03-21T04:24:45;6.05;;;3.90;;
62580;SDS011;48640;48.770;9.148;2023-03-21T04:27:11;4.43;;;2.50;;
62580;SDS011;48640;48.770;9.148;2023-03-21T04:29:40;4.88;;;2.83;;
62580;SDS011;48640;48.770;9.148;2023-03-21T04:32:07;4.30;;;2.72;;
62580;SDS011;48640;48.770;9.148;2023-03-21T04:34:41;4.50;;;2.40;;
62580;SDS011;48640;48.770;9.148;2023-03-21T04:37:13;3.70;;;2.10;;
62580;SDS011;48640;48.770;9.148;2023-03-21T04:39:41;4.30;;;2.40;;
62580;SDS011;48640;48.770;9.148;2023-03-21T04:42:07;5.22;;;2.10;;
62580;SDS011;48640;48.770;9.148;2023-03-21T04:44:34;3.80;;;1.88;;
62580;SDS011;48640;48.770;9.148;2023-03-21T04:47:03;3.90;;;2.30;;
62580;SDS011;48640;48.770;9.148;2023-03-21T04:49:29;3.88;;;2.33;;
62580;SDS011;48640;48.770;9.148;2023-03-21T04:51:56;4.30;;;2.50;;
62580;SDS011;48640;48.770;9.148;2023-03-21T04:54:23;5.05;;;2.60;;
62580;SDS011;48640;48.770;9.148;2023-03-21T04:56:50;3.92;;;2.38;;
62580;SDS011;48640;48.770;9.148;2023-03-21T04:59:17;4.78;;;2.42;;
62580;SDS011;48640;48.770;9.148;2023-03-21T05:01:45;5.47;;;2.80;;
62580;SDS011;48640;48.770;9.148;2023-03-21T05:04:15;5.47;;;2.55;;
62580;SDS011;48640;48.770;9.148;2023-03-21T05:06:42;4.13;;;2.30;;
62580;SDS011;48640;48.770;9.148;2023-03-21T05:09:09;4.15;;;2.70;;
62580;SDS011;48640;48.770;9.148;2023-03-21T05:11:37;3.53;;;2.30;;
62580;SDS011;48640;48.770;9.148;2023-03-21T05:14:05;4.20;;;2.35;;
62580;SDS011;48640;48.770;9.148;2023-03-21T05:16:34;5.50;;;2.58;;
62580;SDS011;48640;48.770;9.148;2023-03-21T05:19:02;6.65;;;2.78;;
62580;SDS011;48640;48.770;9.148;2023-03-21T05:21:31;4.28;;;2.80;;
62580;SDS011;48640;48.770;9.148;2023-03-21T05:24:05;4.30;;;2.80;;
62580;SDS011;48640;48.770;9.148;2023-03-21T05:26:36;4.28;;;2.50;;
62580;SDS011;48640;48.770;9.148;2023-03-21T05:29:02;4.50;;;2.60;;
62580;SDS011;48640;48.770;9.148;2023-03-21T05:31:30;4.40;;;2.92;;
62580;SDS011;48640;48.770;9.148;2023-03-21T05:33:56;7.78;;;2.85;;
62580;SDS011;48640;48.770;9.148;2023-03-21T05:36:23;7.10;;;3.05;;
62580;SDS011;48640;48.770;9.148;2023-03-21T05:38:51;5.57;;;2.90;;
62580;SDS011;48640;48.770;9.148;2023-03-21T05:41:18;4.85;;;2.20;;
62580;SDS011;48640;48.770;9.148;2023-03-21T05:43:45;5.55;;;2.72;;
62580;SDS011;48640;48.770;9.148;2023-03-21T05:46:12;5.15;;;2.80;;
62580;SDS011;48640;48.770;9.148;2023-03-21T05:48:39;4.90;;;2.72;;
62580;SDS011;48640;48.770;9.148;2023-03-21T05:51:06;5.25;;;2.75;;
62580;SDS011;48640;48.770;9.148;2023-03-21T05:53:33;4.68;;;2.75;;
62580;SDS011;48640;48.770;9.148;2023-03-21T05:56:01;4.93;;;3.22;;
62580;SDS011;48640;48.770;9.148;2023-03-21T05:58:28;4.30;;;3.05;;
62580;SDS011;48640;48.770;9.148;2023-03-21T06:00:55;4.25;;;2.75;;
62580;SDS011;48640;48.770;9.148;2023-03-21T06:03:22;4.25;;;2.97;;
62580;SDS011;48640;48.770;9.148;2023-03-21T06:05:49;5.72;;;3.40;;
62580;SDS011;48640;48.770;9.148;2023-03-21T06:08:16;4.35;;;2.53;;
62580;SDS011;48640;48.770;9.148;2023-03-21T06:10:44;5.18;;;2.95;;
62580;SDS011;48640;48.770;9.148;2023-03-21T06:13:12;6.63;;;3.13;;
62580;SDS011;48640;48.770;9.148;2023-03-21T06:15:39;7.32;;;3.15;;
62580;SDS011;48640;48.770;9.148;2023-03-21T06:18:06;6.68;;;2.88;;
62580;SDS011;48640;48.770;9.148;2023-03-21T06:20:33;4.97;;;3.17;;
62580;SDS011;48640;48.770;9.148;2023-03-21T06:23:00;6.05;;;3.33;;
62580;SDS011;48640;48.770;9.148;2023-03-21T06:25:27;4.88;;;2.97;;
62580;SDS011;48640;48.770;9.148;2023-03-21T06:27:54;4.88;;;2.42;;
62580;SDS011;48640;48.770;9.148;2023-03-21T06:30:22;5.32;;;3.20;;
62580;SDS011;48640;48.770;9.148;2023-03-21T06:32:49;4.35;;;2.58;;
62580;SDS011;48640;48.770;9.148;2023-03-21T06:35:15;4.15;;;2.10;;
62580;SDS011;48640;48.770;9.148;2023-03-21T06:37:42;3.42;;;1.80;;
62580;SDS011;48640;48.770;9.148;2023-03-21T06:40:10;5.35;;;2.15;;
62580;SDS011;48640;48.770;9.148;2023-03-21T06:42:38;4.82;;;2.40;;
62580;SDS011;48640;48.770;9.148;2023-03-21T06:45:05;4.78;;;2.30;;
62580;SDS011;48640;48.770;9.148;2023-03-21T06:47:34;3.85;;;2.03;;
62580;SDS011;48640;48.770;9.148;2023-03-21T06:50:01;4.63;;;2.97;;
62580;SDS011;48640;48.770;9.148;2023-03-21T06:52:30;3.42;;;2.33;;
62580;SDS011;48640;48.770;9.148;2023-03-21T06:54:57;5.60;;;2.85;;
62580;SDS011;48640;48.770;9.148;2023-03-21T06:57:23;4.72;;;2.30;;
62580;SDS011;48640;48.770;9.148;2023-03-21T06:59:50;7.28;;;3.10;;
62580;SDS011;48640;48.770;9.148;2023-03-21T07:02:17;6.82;;;3.35;;
62580;SDS011;48640;48.770;9.148;2023-03-21T07:04:45;5.32;;;3.03;;
62580;SDS011;48640;48.770;9.148;2023-03-21T07:07:12;5.57;;;2.70;;
62580;SDS011;48640;48.770;9.148;2023-03-21T07:09:39;3.10;;;2.17;;
62580;SDS011;48640;48.770;9.148;2023-03-21T07:12:06;6.50;;;2.70;;
62580;SDS011;48640;48.770;9.148;2023-03-21T07:14:34;5.15;;;2.70;;
62580;SDS011;48640;48.770;9.148;2023-03-21T07:17:00;4.32;;;2.50;;
62580;SDS011;48640;48.770;9.148;2023-03-21T07:19:27;5.13;;;2.72;;
62580;SDS011;48640;48.770;9.148;2023-03-21T07:21:56;5.60;;;2.55;;
62580;SDS011;48640;48.770;9.148;2023-03-21T07:24:24;4.63;;;2.23;;
62580;SDS011;48640;48.770;9.148;2023-03-21T07:26:51;4.70;;;2.55;;
62580;SDS011;48640;48.770;9.148;2023-03-21T07:29:18;4.07;;;2.60;;
62580;SDS011;48640;48.770;9.148;2023-03-21T07:31:47;4.63;;;2.35;;
62580;SDS011;48640;48.770;9.148;2023-03-21T07:34:14;3.90;;;2.33;;
62580;SDS011;48640;48.770;9.148;2023-03-21T07:36:42;5.22;;;2.47;;
62580;SDS011;48640;48.770;9.148;2023-03-21T07:39:11;4.30;;;2.45;;
62580;SDS011;48640;48.770;9.148;2023-03-21T07:41:37;5.97;;;2.17;;
62580;SDS011;48640;48.770;9.148;2023-03-21T07:44:04;7.93;;;2.58;;
62580;SDS011;48640;48.770;9.148;2023-03-21T07:46:31;7.20;;;2.72;;
62580;SDS011;48640;48.770;9.148;2023-03-21T07:48:58;4.05;;;2.08;;
62580;SDS011;48640;48.770;9.148;2023-03-21T07:51:25;3.40;;;1.90;;
62580;SDS011;48640;48.770;9.148;2023-03-21T07:53:51;5.10;;;2.33;;
62580;SDS011;48640;48.770;9.148;2023-03-21T07:56:20;4.13;;;2.03;;
62580;SDS011;48640;48.770;9.148;2023-03-21T07:58:46;4.30;;;2.38;;
62580;SDS011;48640;48.770;9.148;2023-03-21T08:01:13;6.43;;;2.10;;
62580;SDS011;48640;48.770;9.148;2023-03-21T08:03:40;4.90;;;2.47;;
62580;SDS011;48640;48.770;9.148;2023-03-21T08:06:07;4.63;;;2.33;;
62580;SDS011;48640;48.770;9.148;2023-03-21T08:08:35;4.82;;;2.60;;
62580;SDS011;48640;48.770;9.148;2023-03-21T08:11:02;9.18;;;3.05;;
62580;SDS011;48640;48.770;9.148;2023-03-21T08:13:31;4.50;;;2.83;;
62580;SDS011;48640;48.770;9.148;2023-03-21T08:15:58;9.60;;;3.13;;
62580;SDS011;48640;48.770;9.148;2023-03-21T08:18:25;5.55;;;2.20;;
62580;SDS011;48640;48.770;9.148;2023-03-21T08:20:51;5.45;;;2.33;;
62580;SDS011;48640;48.770;9.148;2023-03-21T08:23:19;4.35;;;2.03;;
62580;SDS011;48640;48.770;9.148;2023-03-21T08:25:49;3.63;;;2.15;;
62580;SDS011;48640;48.770;9.148;2023-03-21T08:28:16;3.67;;;2.00;;
62580;SDS011;48640;48.770;9.148;2023-03-21T08:30:45;4.65;;;1.90;;
62580;SDS011;48640;48.770;9.148;2023-03-21T08:33:12;9.07;;;1.98;;
62580;SDS011;48640;48.770;9.148;2023-03-21T08:35:39;6.38;;;1.92;;
62580;SDS011;48640;48.770;9.148;2023-03-21T08:38:06;6.00;;;1.85;;
62580;SDS011;48640;48.770;9.148;2023-03-21T08:40:33;5.22;;;2.03;;
62580;SDS011;48640;48.770;9.148;2023-03-21T08:43:00;4.35;;;1.90;;
62580;SDS011;48640;48.770;9.148;2023-03-21T08:45:27;3.13;;;1.85;;
62580;SDS011;48640;48.770;9.148;2023-03-21T08:47:56;3.08;;;1.42;;
62580;SDS011;48640;48.770;9.148;2023-03-21T08:50:23;5.22;;;1.85;;
62580;SDS011;48640;48.770;9.148;2023-03-21T08:52:53;3.00;;;1.80;;
62580;SDS011;48640;48.770;9.148;2023-03-21T08:55:20;4.68;;;2.08;;
62580;SDS011;48640;48.770;9.148;2023-03-21T08:57:47;4.38;;;1.80;;
62580;SDS011;48640;48.770;9.148;2023-03-21T09:00:14;3.47;;;1.88;;
62580;SDS011;48640;48.770;9.148;2023-03-21T09:02:42;3.50;;;1.60;;
62580;SDS011;48640;48.770;9.148;2023-03-21T09:05:12;4.75;;;1.60;;
62580;SDS011;48640;48.770;9.148;2023-03-21T09:10:08;2.58;;;1.50;;
62580;SDS011;48640;48.770;9.148;2023-03-21T09:12:37;3.28;;;1.48;;
62580;SDS011;48640;48.770;9.148;2023-03-21T09:15:05;4.28;;;2.10;;
62580;SDS011;48640;48.770;9.148;2023-03-21T09:17:33;4.00;;;1.70;;
62580;SDS011;48640;48.770;9.148;2023-03-21T09:20:00;3.28;;;1.60;;
62580;SDS011;48640;48.770;9.148;2023-03-21T09:22:36;3.33;;;1.30;;
62580;SDS011;48640;48.770;9.148;2023-03-21T09:25:05;3.53;;;1.40;;
62580;SDS011;48640;48.770;9.148;2023-03-21T09:27:35;3.10;;;1.40;;
62580;SDS011;48640;48.770;9.148;2023-03-21T09:30:03;7.18;;;1.77;;
62580;SDS011;48640;48.770;9.148;2023-03-21T09:32:31;4.20;;;1.40;;
62580;SDS011;48640;48.770;9.148;2023-03-21T09:34:58;3.15;;;1.27;;
62580;SDS011;48640;48.770;9.148;2023-03-21T09:37:24;3.03;;;1.52;;
62580;SDS011;48640;48.770;9.148;2023-03-21T09:39:53;3.08;;;1.50;;
62580;SDS011;48640;48.770;9.148;2023-03-21T09:42:28;2.95;;;1.50;;
62580;SDS011;48640;48.770;9.148;2023-03-21T09:45:06;3.00;;;1.30;;
62580;SDS011;48640;48.770;9.148;2023-03-21T09:47:38;5.60;;;1.60;;
62580;SDS011;48640;48.770;9.148;2023-03-21T09:50:18;7.65;;;1.23;;
62580;SDS011;48640;48.770;9.148;2023-03-21T09:52:48;2.20;;;1.15;;
62580;SDS011;48640;48.770;9.148;2023-03-21T09:55:23;3.67;;;1.30;;
62580;SDS011;48640;48.770;9.148;2023-03-21T09:57:56;4.53;;;1.45;;
62580;SDS011;48640;48.770;9.148;2023-03-21T10:00:32;2.22;;;1.10;;
62580;SDS011;48640;48.770;9.148;2023-03-21T10:03:03;2.03;;;1.05;;
62580;SDS011;48640;48.770;9.148;2023-03-21T10:05:34;2.20;;;1.00;;
62580;SDS011;48640;48.770;9.148;2023-03-21T10:08:05;2.05;;;1.00;;
62580;SDS011;48640;48.770;9.148;2023-03-21T10:10:36;2.67;;;1.13;;
62580;SDS011;48640;48.770;9.148;2023-03-21T10:13:11;3.95;;;1.42;;
62580;SDS011;48640;48.770;9.148;2023-03-21T10:15:40;2.40;;;0.90;;
62580;SDS011;48640;48.770;9.148;2023-03-21T10:18:07;2.50;;;1.08;;
62580;SDS011;48640;48.770;9.148;2023-03-21T10:20:40;2.35;;;1.17;;
62580;SDS011;48640;48.770;9.148;2023-03-21T10:23:10;2.03;;;1.10;;
62580;SDS011;48640;48.770;9.148;2023-03-21T10:25:43;1.67;;;1.20;;
62580;SDS011;48640;48.770;9.148;2023-03-21T10:28:14;2.20;;;1.00;;
62580;SDS011;48640;48.770;9.148;2023-03-21T10:30:43;2.92;;;1.00;;
62580;SDS011;48640;48.770;9.148;2023-03-21T10:33:12;2.78;;;1.10;;
62580;SDS011;48640;48.770;9.148;2023-03-21T10:38:12;2.78;;;1.02;;
62580;SDS011;48640;48.770;9.148;2023-03-21T10:40:43;3.60;;;1.85;;
62580;SDS011;48640;48.770;9.148;2023-03-21T10:43:18;3.83;;;1.30;;
62580;SDS011;48640;48.770;9.148;2023-03-21T10:45:55;2.97;;;1.33;;
62580;SDS011;48640;48.770;9.148;2023-03-21T10:48:22;5.35;;;1.17;;
62580;SDS011;48640;48.770;9.148;2023-03-21T10:50:50;2.33;;;1.10;;
62580;SDS011;48640;48.770;9.148;2023-03-21T10:53:20;1.80;;;1.00;;
62580;SDS011;48640;48.770;9.148;2023-03-21T10:55:54;2.13;;;1.10;;
62580;SDS011;48640;48.770;9.148;2023-03-21T10:58:24;2.63;;;1.20;;
62580;SDS011;48640;48.770;9.148;2023-03-21T11:00:53;2.03;;;0.80;;
62580;SDS011;48640;48.770;9.148;2023-03-21T11:03:23;2.60;;;1.17;;
62580;SDS011;48640;48.770;9.148;2023-03-21T11:06:04;9.25;;;6.50;;
62580;SDS011;48640;48.770;9.148;2023-03-21T11:08:36;2.80;;;1.00;;
62580;SDS011;48640;48.770;9.148;2023-03-21T11:11:07;6.60;;;1.17;;
62580;SDS011;48640;48.770;9.148;2023-03-21T11:13:37;4.85;;;1.45;;
62580;SDS011;48640;48.770;9.148;2023-03-21T11:16:06;1.77;;;0.90;;
62580;SDS011;48640;48.770;9.148;2023-03-21T11:21:06;3.70;;;1.27;;
62580;SDS011;48640;48.770;9.148;2023-03-21T11:26:09;2.13;;;1.10;;
62580;SDS011;48640;48.770;9.148;2023-03-21T11:28:37;1.10;;;0.70;;
62580;SDS011;48640;48.770;9.148;2023-03-21T11:31:05;4.53;;;1.02;;
62580;SDS011;48640;48.770;9.148;2023-03-21T11:33:34;1.83;;;0.70;;
62580;SDS011;48640;48.770;9.148;2023-03-21T11:36:05;2.75;;;1.00;;
62580;SDS011;48640;48.770;9.148;2023-03-21T11:38:50;2.78;;;1.15;;
62580;SDS011;48640;48.770;9.148;2023-03-21T11:41:23;1.35;;;0.75;;
62580;SDS011;48640;48.770;9.148;2023-03-21T11:43:53;2.10;;;0.90;;
62580;SDS011;48640;48.770;9.148;2023-03-21T11:46:21;2.13;;;1.00;;
62580;SDS011;48640;48.770;9.148;2023-03-21T11:48:49;2.03;;;0.98;;
62580;SDS011;48640;48.770;9.148;2023-03-21T11:51:20;1.50;;;0.80;;
62580;SDS011;48640;48.770;9.148;2023-03-21T11:53:56;2.22;;;0.93;;
62580;SDS011;48640;48.770;9.148;2023-03-21T11:56:31;1.33;;;0.77;;
62580;SDS011;48640;48.770;9.148;2023-03-21T12:01:42;1.70;;;1.10;;
62580;SDS011;48640;48.770;9.148;2023-03-21T12:04:25;1.73;;;0.90;;
62580;SDS011;48640;48.770;9.148;2023-03-21T12:07:08;2.35;;;1.00;;
62580;SDS011;48640;48.770;9.148;2023-03-21T12:09:46;3.15;;;1.10;;
62580;SDS011;48640;48.770;9.148;2023-03-21T12:12:26;3.25;;;1.15;;
62580;SDS011;48640;48.770;9.148;2023-03-21T12:15:05;1.98;;;0.80;;
62580;SDS011;48640;48.770;9.148;2023-03-21T12:17:42;1.08;;;0.80;;
62580;SDS011;48640;48.770;9.148;2023-03-21T12:20:23;2.35;;;1.33;;
62580;SDS011;48640;48.770;9.148;2023-03-21T12:23:06;2.95;;;1.10;;
62580;SDS011;48640;48.770;9.148;2023-03-21T12:25:59;4.35;;;1.20;;
62580;SDS011;48640;48.770;9.148;2023-03-21T12:28:38;1.73;;;1.08;;
62580;SDS011;48640;48.770;9.148;2023-03-21T12:36:25;1.80;;;1.05;;
62580;SDS011;48640;48.770;9.148;2023-03-21T12:39:03;2.38;;;1.02;;
62580;SDS011;48640;48.770;9.148;2023-03-21T12:41:40;2.47;;;1.10;;
62580;SDS011;48640;48.770;9.148;2023-03-21T12:44:12;2.70;;;1.20;;
62580;SDS011;48640;48.770;9.148;2023-03-21T12:46:42;3.22;;;1.25;;
62580;SDS011;48640;48.770;9.148;2023-03-21T12:49:13;3.00;;;1.30;;
62580;SDS011;48640;48.770;9.148;2023-03-21T12:51:45;2.40;;;1.25;;
62580;SDS011;48640;48.770;9.148;2023-03-21T12:54:16;4.18;;;1.50;;
62580;SDS011;48640;48.770;9.148;2023-03-21T12:56:49;2.63;;;1.50;;
62580;SDS011;48640;48.770;9.148;2023-03-21T12:59:24;2.88;;;1.27;;
62580;SDS011;48640;48.770;9.148;2023-03-21T13:01:58;2.65;;;1.10;;
62580;SDS011;48640;48.770;9.148;2023-03-21T13:04:35;2.40;;;1.00;;
62580;SDS011;48640;48.770;9.148;2023-03-21T13:07:07;3.78;;;1.30;;
62580;SDS011;48640;48.770;9.148;2023-03-21T13:09:40;4.20;;;1.38;;
62580;SDS011;48640;48.770;9.148;2023-03-21T13:12:12;3.13;;;1.20;;
62580;SDS011;48640;48.770;9.148;2023-03-21T13:14:51;2.75;;;1.13;;
62580;SDS011;48640;48.770;9.148;2023-03-21T13:17:26;5.38;;;1.30;;
62580;SDS011;48640;48.770;9.148;2023-03-21T13:19:59;4.00;;;1.00;;
62580;SDS011;48640;48.770;9.148;2023-03-21T13:22:34;3.20;;;1.13;;
62580;SDS011;48640;48.770;9.148;2023-03-21T13:25:02;4.30;;;1.05;;
62580;SDS011;48640;48.770;9.148;2023-03-21T13:27:33;2.55;;;1.23;;
62580;SDS011;48640;48.770;9.148;2023-03-21T13:30:03;3.83;;;1.20;;
62580;SDS011;48640;48.770;9.148;2023-03-21T13:32:31;4.22;;;1.38;;
62580;SDS011;48640;48.770;9.148;2023-03-21T13:35:01;6.55;;;1.10;;
62580;SDS011;48640;48.770;9.148;2023-03-21T13:37:40;4.22;;;1.30;;
62580;SDS011;48640;48.770;9.148;2023-03-21T13:40:19;2.55;;;1.30;;
62580;SDS011;48640;48.770;9.148;2023-03-21T13:42:49;2.50;;;1.00;;
62580;SDS011;48640;48.770;9.148;2023-03-21T13:45:26;3.30;;;1.17;;
62580;SDS011;48640;48.770;9.148;2023-03-21T13:47:56;3.05;;;1.20;;
62580;SDS011;48640;48.770;9.148;2023-03-21T13:50:28;2.10;;;1.00;;
62580;SDS011;48640;48.770;9.148;2023-03-21T13:56:00;2.85;;;1.15;;
62580;SDS011;48640;48.770;9.148;2023-03-21T13:58:36;3.17;;;1.27;;
62580;SDS011;48640;48.770;9.148;2023-03-21T14:01:08;3.22;;;1.00;;
62580;SDS011;48640;48.770;9.148;2023-03-21T14:03:45;2.00;;;1.00;;
62580;SDS011;48640;48.770;9.148;2023-03-21T14:06:13;3.45;;;1.50;;
62580;SDS011;48640;48.770;9.148;2023-03-21T14:08:42;2.42;;;1.15;;
62580;SDS011;48640;48.770;9.148;2023-03-21T14:11:12;4.03;;;1.10;;
62580;SDS011;48640;48.770;9.148;2023-03-21T14:13:42;2.15;;;1.15;;
62580;SDS011;48640;48.770;9.148;2023-03-21T14:16:12;3.72;;;1.38;;
62580;SDS011;48640;48.770;9.148;2023-03-21T14:18:41;3.65;;;1.60;;
62580;SDS011;48640;48.770;9.148;2023-03-21T14:21:14;4.28;;;1.70;;
62580;SDS011;48640;48.770;9.148;2023-03-21T14:23:42;5.75;;;1.90;;
62580;SDS011;48640;48.770;9.148;2023-03-21T14:26:09;5.88;;;2.58;;
62580;SDS011;48640;48.770;9.148;2023-03-21T14:28:37;3.72;;;1.88;;
62580;SDS011;48640;48.770;9.148;2023-03-21T14:31:12;4.97;;;1.70;;
62580;SDS011;48640;48.770;9.148;2023-03-21T14:33:41;5.00;;;2.00;;
62580;SDS011;48640;48.770;9.148;2023-03-21T14:36:14;6.28;;;1.90;;
62580;SDS011;48640;48.770;9.148;2023-03-21T14:38:42;3.75;;;1.77;;
62580;SDS011;48640;48.770;9.148;2023-03-21T14:41:18;3.03;;;1.52;;
62580;SDS011;48640;48.770;9.148;2023-03-21T14:43:59;3.47;;;1.52;;
62580;SDS011;48640;48.770;9.148;2023-03-21T14:46:28;5.43;;;1.65;;
62580;SDS011;48640;48.770;9.148;2023-03-21T14:49:08;5.55;;;2.20;;
62580;SDS011;48640;48.770;9.148;2023-03-21T14:51:36;4.53;;;1.60;;
62580;SDS011;48640;48.770;9.148;2023-03-21T14:54:03;4.63;;;1.80;;
62580;SDS011;48640;48.770;9.148;2023-03-21T14:56:31;6.78;;;2.03;;
62580;SDS011;48640;48.770;9.148;2023-03-21T14:59:00;5.30;;;1.95;;
62580;SDS011;48640;48.770;9.148;2023-03-21T15:01:29;5.82;;;2.42;;
62580;SDS011;48640;48.770;9.148;2023-03-21T15:03:59;6.03;;;2.38;;
62580;SDS011;48640;48.770;9.148;2023-03-21T15:06:29;6.28;;;1.95;;
62580;SDS011;48640;48.770;9.148;2023-03-21T15:08:57;8.48;;;3.08;;
62580;SDS011;48640;48.770;9.148;2023-03-21T15:11:29;4.53;;;2.40;;
62580;SDS011;48640;48.770;9.148;2023-03-21T15:13:57;5.95;;;2.17;;
62580;SDS011;48640;48.770;9.148;2023-03-21T15:16:25;5.30;;;2.60;;
62580;SDS011;48640;48.770;9.148;2023-03-21T15:18:54;5.63;;;2.55;;
62580;SDS011;48640;48.770;9.148;2023-03-21T15:21:22;6.93;;;2.50;;
62580;SDS011;48640;48.770;9.148;2023-03-21T15:23:55;6.18;;;2.80;;
62580;SDS011;48640;48.770;9.148;2023-03-21T15:26:24;6.10;;;1.95;;
62580;SDS011;48640;48.770;9.148;2023-03-21T15:28:54;4.45;;;2.05;;
62580;SDS011;48640;48.770;9.148;2023-03-21T15:31:23;6.05;;;2.38;;
62580;SDS011;48640;48.770;9.148;2023-03-21T15:33:57;6.15;;;2.08;;
62580;SDS011;48640;48.770;9.148;2023-03-21T15:36:24;5.78;;;2.50;;